createdAt,value
2023-04-11T00:00:29.925Z,8.54
2023-04-11T00:03:00.303Z,8.53
2023-04-11T00:05:33.410Z,8.49
2023-04-11T00:07:59.805Z,8.51
2023-04-11T00:10:26.193Z,8.53
2023-04-11T00:12:56.471Z,8.51
2023-04-11T00:15:26.875Z,8.52
2023-04-11T00:17:54.924Z,8.54
2023-04-11T00:20:21.660Z,8.52
2023-04-11T00:22:48.244Z,8.54
2023-04-11T00:25:15.293Z,8.55
2023-04-11T00:27:41.638Z,8.57
2023-04-11T00:30:08.456Z,8.56
2023-04-11T00:32:34.816Z,8.56
2023-04-11T00:35:04.627Z,8.54
2023-04-11T00:37:36.108Z,8.63
2023-04-11T00:40:05.690Z,8.63
2023-04-11T00:42:32.698Z,8.64
2023-04-11T00:44:59.046Z,8.63
2023-04-11T00:47:25.823Z,8.65
2023-04-11T00:49:52.324Z,8.66
2023-04-11T00:52:19.405Z,8.63
2023-04-11T00:54:46.721Z,8.67
2023-04-11T00:57:13.313Z,8.68
2023-04-11T00:59:41.581Z,8.68
2023-04-11T01:02:08.238Z,8.69
2023-04-11T01:04:34.953Z,8.72
2023-04-11T01:07:06.297Z,8.76
2023-04-11T01:09:35.464Z,8.79
2023-04-11T01:12:03.961Z,8.77
2023-04-11T01:14:30.619Z,8.79
2023-04-11T01:16:58.164Z,8.79
2023-04-11T01:19:29.256Z,8.78
2023-04-11T01:21:57.825Z,8.78
2023-04-11T01:24:24.457Z,8.80
2023-04-11T01:26:50.852Z,8.83
2023-04-11T01:29:17.502Z,8.83
2023-04-11T01:31:44.029Z,8.83
2023-04-11T01:34:13.877Z,8.86
2023-04-11T01:36:42.007Z,8.86
2023-04-11T01:39:08.561Z,8.86
2023-04-11T01:41:35.898Z,8.86
2023-04-11T01:44:04.120Z,8.90
2023-04-11T01:46:30.962Z,8.90
2023-04-11T01:48:58.559Z,8.91
2023-04-11T01:51:25.173Z,8.92
2023-04-11T01:53:51.573Z,8.88
2023-04-11T01:56:17.951Z,8.86
2023-04-11T01:58:44.439Z,8.86
2023-04-11T02:01:13.180Z,8.84
2023-04-11T02:03:39.703Z,8.83
2023-04-11T02:06:06.448Z,8.84
2023-04-11T02:08:32.915Z,8.88
2023-04-11T02:10:59.308Z,8.86
2023-04-11T02:13:25.778Z,8.88
2023-04-11T02:15:52.163Z,8.89
2023-04-11T02:18:18.565Z,8.92
2023-04-11T02:20:45.063Z,8.92
2023-04-11T02:23:12.728Z,8.94
2023-04-11T02:25:39.306Z,8.95
2023-04-11T02:28:07.967Z,8.97
2023-04-11T02:30:34.743Z,9.00
2023-04-11T02:33:01.691Z,8.99
2023-04-11T02:35:28.152Z,8.98
2023-04-11T02:37:54.528Z,9.00
2023-04-11T02:40:20.903Z,9.01
2023-04-11T02:42:47.376Z,9.01
2023-04-11T02:45:13.752Z,9.01
2023-04-11T02:47:40.293Z,8.99
2023-04-11T02:50:07.478Z,8.98
2023-04-11T02:52:34.133Z,8.98
2023-04-11T02:55:00.604Z,8.95
2023-04-11T02:57:27.727Z,8.94
2023-04-11T02:59:54.123Z,8.90
2023-04-11T03:02:23.488Z,8.89
2023-04-11T03:04:51.156Z,8.86
2023-04-11T03:07:17.550Z,8.80
2023-04-11T03:09:44.116Z,8.75
2023-04-11T03:12:10.489Z,8.74
2023-04-11T03:14:36.911Z,8.75
2023-04-11T03:17:03.290Z,8.75
2023-04-11T03:19:29.804Z,8.75
2023-04-11T03:21:56.457Z,8.75
2023-04-11T03:24:22.838Z,8.76
2023-04-11T03:26:49.198Z,8.76
2023-04-11T03:29:16.599Z,8.78
2023-04-11T03:31:43.227Z,8.78
2023-04-11T03:34:09.712Z,8.79
2023-04-11T03:36:36.123Z,8.78
2023-04-11T03:39:02.913Z,8.76
2023-04-11T03:41:29.471Z,8.74
2023-04-11T03:43:55.892Z,8.72
2023-04-11T03:46:22.273Z,8.74
2023-04-11T03:48:48.663Z,8.74
2023-04-11T03:51:15.449Z,8.71
2023-04-11T03:53:41.827Z,8.70
2023-04-11T03:56:08.974Z,8.69
2023-04-11T03:58:36.070Z,8.66
2023-04-11T04:01:02.733Z,8.64
2023-04-11T04:03:29.384Z,8.63
2023-04-11T04:05:55.870Z,8.61
2023-04-11T04:08:22.238Z,8.59
2023-04-11T04:10:48.754Z,8.61
2023-04-11T04:13:15.266Z,8.61
2023-04-11T04:15:42.408Z,8.60
2023-04-11T04:18:08.912Z,8.60
2023-04-11T04:20:35.342Z,8.57
2023-04-11T04:23:04.671Z,8.54
2023-04-11T04:25:31.120Z,8.54
2023-04-11T04:27:58.187Z,8.56
2023-04-11T04:30:28.756Z,8.54
2023-04-11T04:32:58.971Z,8.52
2023-04-11T04:35:26.555Z,8.50
2023-04-11T04:37:54.084Z,8.49
2023-04-11T04:40:20.713Z,8.49
2023-04-11T04:42:58.083Z,8.48
2023-04-11T04:45:26.253Z,8.46
2023-04-11T04:47:52.832Z,8.41
2023-04-11T04:50:20.372Z,8.37
2023-04-11T04:52:47.122Z,8.34
2023-04-11T04:55:14.478Z,8.30
2023-04-11T04:57:40.826Z,8.25
2023-04-11T05:00:11.559Z,8.22
2023-04-11T05:02:38.180Z,8.19
2023-04-11T05:05:05.204Z,8.17
2023-04-11T05:07:31.814Z,8.11
2023-04-11T05:09:58.291Z,8.06
2023-04-11T05:12:27.136Z,8.08
2023-04-11T05:14:55.377Z,8.04
2023-04-11T05:17:23.943Z,8.02
2023-04-11T05:19:51.783Z,8.02
2023-04-11T05:22:18.253Z,8.01
2023-04-11T05:24:44.658Z,8.01
2023-04-11T05:27:11.009Z,7.98
2023-04-11T05:29:37.349Z,7.97
2023-04-11T05:32:03.914Z,7.97
2023-04-11T05:34:32.688Z,7.95
2023-04-11T05:36:59.097Z,7.96
2023-04-11T05:39:25.709Z,7.98
2023-04-11T05:41:52.094Z,7.98
2023-04-11T05:44:18.547Z,7.96
2023-04-11T05:46:44.898Z,7.98
2023-04-11T05:49:11.659Z,8.01
2023-04-11T05:51:38.123Z,8.03
2023-04-11T05:54:04.613Z,8.05
2023-04-11T05:56:31.026Z,8.08
2023-04-11T05:58:57.395Z,8.09
2023-04-11T06:01:23.906Z,8.13
2023-04-11T06:03:50.492Z,8.15
2023-04-11T06:06:17.381Z,8.18
2023-04-11T06:08:44.210Z,8.19
2023-04-11T06:11:11.215Z,8.23
2023-04-11T06:13:37.704Z,8.29
2023-04-11T06:16:06.498Z,8.35
2023-04-11T06:18:32.997Z,8.38
2023-04-11T06:20:59.463Z,8.40
2023-04-11T06:23:25.886Z,8.45
2023-04-11T06:25:52.972Z,8.49
2023-04-11T06:28:19.405Z,8.51
2023-04-11T06:30:45.894Z,8.53
2023-04-11T06:33:12.497Z,8.57
2023-04-11T06:35:39.025Z,8.61
2023-04-11T06:38:05.485Z,8.62
2023-04-11T06:40:31.947Z,8.69
2023-04-11T06:43:00.114Z,8.74
2023-04-11T06:45:26.691Z,8.76
2023-04-11T06:47:53.233Z,8.85
2023-04-11T06:50:19.801Z,8.94
2023-04-11T06:52:46.200Z,8.95
2023-04-11T06:55:15.378Z,8.99
2023-04-11T06:57:43.104Z,9.06
2023-04-11T07:00:12.232Z,9.06
2023-04-11T07:02:39.382Z,9.03
2023-04-11T07:05:06.587Z,9.06
2023-04-11T07:07:33.020Z,9.13
2023-04-11T07:09:59.499Z,9.20
2023-04-11T07:12:25.901Z,9.25
2023-04-11T07:14:52.360Z,9.30
2023-04-11T07:17:18.764Z,9.33
2023-04-11T07:19:45.187Z,9.35
2023-04-11T07:22:11.553Z,9.44
2023-04-11T07:24:37.956Z,9.49
2023-04-11T07:27:04.758Z,9.64
2023-04-11T07:29:31.696Z,9.67
2023-04-11T07:31:58.234Z,9.68
2023-04-11T07:34:24.763Z,9.75
2023-04-11T07:36:51.267Z,9.78
2023-04-11T07:39:17.755Z,9.82
2023-04-11T07:41:44.862Z,9.97
2023-04-11T07:44:11.459Z,10.08
2023-04-11T07:46:37.826Z,10.10
2023-04-11T07:49:04.481Z,10.14
2023-04-11T07:51:31.289Z,10.20
2023-04-11T07:53:57.904Z,10.25
2023-04-11T07:56:24.447Z,10.25
2023-04-11T07:58:50.914Z,10.36
2023-04-11T08:01:25.469Z,10.35
2023-04-11T08:03:53.567Z,10.54
2023-04-11T08:06:20.450Z,10.76
2023-04-11T08:08:47.876Z,10.76
2023-04-11T08:11:14.699Z,10.72
2023-04-11T08:13:42.177Z,10.56
2023-04-11T08:16:10.886Z,10.64
2023-04-11T08:18:37.524Z,10.86
2023-04-11T08:21:04.024Z,11.07
2023-04-11T08:23:30.470Z,11.28
2023-04-11T08:25:56.919Z,11.47
2023-04-11T08:28:23.930Z,11.66
2023-04-11T08:30:55.249Z,11.89
2023-04-11T08:33:25.041Z,12.08
2023-04-11T08:35:51.590Z,12.29
2023-04-11T08:38:18.209Z,12.38
2023-04-11T08:40:44.580Z,12.48
2023-04-11T08:43:12.391Z,12.57
2023-04-11T08:45:42.266Z,12.61
2023-04-11T08:48:09.368Z,12.62
2023-04-11T08:50:35.986Z,12.47
2023-04-11T08:53:03.756Z,12.19
2023-04-11T08:55:31.056Z,11.84
2023-04-11T08:57:59.351Z,11.76
2023-04-11T09:00:28.807Z,11.96
2023-04-11T09:03:00.903Z,12.19
2023-04-11T09:05:29.768Z,12.38
2023-04-11T09:07:58.873Z,12.54
2023-04-11T09:10:26.684Z,12.42
2023-04-11T09:12:56.608Z,12.49
2023-04-11T09:15:28.270Z,12.60
2023-04-11T09:17:58.223Z,12.76
2023-04-11T09:20:27.163Z,12.86
2023-04-11T09:22:54.130Z,12.87
2023-04-11T09:25:23.045Z,12.79
2023-04-11T09:27:50.834Z,12.55
2023-04-11T09:30:26.878Z,12.47
2023-04-11T09:32:54.239Z,12.64
2023-04-11T09:35:24.078Z,12.76
2023-04-11T09:37:58.435Z,12.89
2023-04-11T09:40:27.006Z,12.98
2023-04-11T09:43:01.335Z,13.03
2023-04-11T09:45:32.162Z,13.10
2023-04-11T09:48:02.449Z,13.24
2023-04-11T09:50:29.073Z,13.35
2023-04-11T09:52:58.513Z,13.37
2023-04-11T09:55:25.902Z,13.34
2023-04-11T09:57:54.143Z,13.43
2023-04-11T10:00:24.100Z,13.54
2023-04-11T10:02:53.630Z,13.43
2023-04-11T10:05:25.962Z,13.27
2023-04-11T10:08:02.522Z,13.07
2023-04-11T10:10:29.514Z,13.00
2023-04-11T10:12:56.026Z,13.07
2023-04-11T10:15:22.942Z,12.84
2023-04-11T10:18:12.209Z,12.54
2023-04-11T10:20:50.105Z,12.49
2023-04-11T10:23:16.817Z,12.48
2023-04-11T10:26:00.005Z,12.62
2023-04-11T10:28:30.903Z,12.59
2023-04-11T10:31:09.856Z,12.63
2023-04-11T10:33:38.133Z,12.57
2023-04-11T10:36:06.175Z,12.49
2023-04-11T10:38:41.503Z,12.51
2023-04-11T10:41:25.006Z,12.55
2023-04-11T10:43:52.058Z,12.57
2023-04-11T10:46:22.841Z,12.46
2023-04-11T10:49:03.575Z,12.44
2023-04-11T10:51:31.631Z,12.51
2023-04-11T10:54:02.784Z,12.52
2023-04-11T10:56:48.842Z,12.69
2023-04-11T10:59:36.314Z,12.91
2023-04-11T11:02:03.076Z,13.09
2023-04-11T11:04:33.911Z,13.16
2023-04-11T11:07:01.804Z,13.25
2023-04-11T11:09:28.773Z,13.34
2023-04-11T11:12:08.461Z,13.42
2023-04-11T11:14:35.649Z,13.57
2023-04-11T11:17:03.084Z,13.56
2023-04-11T11:19:31.104Z,13.66
2023-04-11T11:22:03.412Z,13.74
2023-04-11T11:24:30.918Z,13.84
2023-04-11T11:26:58.189Z,13.87
2023-04-11T11:29:34.041Z,13.83
2023-04-11T11:32:03.580Z,13.83
2023-04-11T11:34:31.773Z,13.73
2023-04-11T11:36:59.566Z,13.70
2023-04-11T11:39:26.654Z,13.51
2023-04-11T11:41:53.629Z,13.39
2023-04-11T11:44:28.753Z,13.51
2023-04-11T11:47:02.227Z,13.63
2023-04-11T11:49:52.547Z,13.72
2023-04-11T11:52:43.488Z,13.77
2023-04-11T11:55:32.060Z,13.85
2023-04-11T11:58:01.283Z,13.82
2023-04-11T12:00:29.088Z,13.72
2023-04-11T12:02:56.894Z,13.73
2023-04-11T12:05:33.206Z,13.68
2023-04-11T12:08:05.225Z,13.75
2023-04-11T12:10:40.522Z,13.76
2023-04-11T12:13:25.491Z,13.91
2023-04-11T12:15:55.642Z,14.02
2023-04-11T12:18:27.713Z,13.92
2023-04-11T12:20:54.369Z,14.02
2023-04-11T12:23:22.573Z,14.24
2023-04-11T12:25:48.967Z,14.37
2023-04-11T12:28:15.704Z,14.47
2023-04-11T12:30:42.169Z,14.51
2023-04-11T12:33:08.865Z,14.50
2023-04-11T12:35:35.326Z,14.49
2023-04-11T12:38:01.894Z,14.35
2023-04-11T12:40:29.769Z,14.32
2023-04-11T12:42:57.462Z,14.27
2023-04-11T12:45:25.006Z,14.36
2023-04-11T12:47:52.075Z,14.50
2023-04-11T12:50:18.747Z,14.54
2023-04-11T12:52:45.419Z,14.32
2023-04-11T12:55:12.990Z,14.21
2023-04-11T12:57:39.641Z,14.26
2023-04-11T13:00:07.760Z,14.32
2023-04-11T13:02:42.221Z,14.34
2023-04-11T13:05:14.101Z,14.25
2023-04-11T13:07:41.153Z,14.32
2023-04-11T13:10:08.274Z,14.42
2023-04-11T13:12:39.832Z,14.45
2023-04-11T13:15:08.124Z,14.55
2023-04-11T13:17:36.920Z,14.56
2023-04-11T13:20:10.713Z,14.51
2023-04-11T13:22:38.508Z,14.58
2023-04-11T13:25:05.844Z,14.62
2023-04-11T13:27:32.275Z,14.50
2023-04-11T13:29:58.781Z,14.49
2023-04-11T13:32:25.567Z,14.54
2023-04-11T13:34:52.153Z,14.54
2023-04-11T13:37:18.655Z,14.56
2023-04-11T13:39:45.024Z,14.63
2023-04-11T13:42:12.609Z,14.71
2023-04-11T13:44:38.999Z,14.64
2023-04-11T13:47:05.567Z,14.64
2023-04-11T13:49:31.938Z,14.64
2023-04-11T13:51:58.341Z,14.61
2023-04-11T13:54:24.722Z,14.61
2023-04-11T13:56:51.125Z,14.60
2023-04-11T13:59:17.485Z,14.54
2023-04-11T14:01:44.203Z,14.46
2023-04-11T14:04:10.740Z,14.44
2023-04-11T14:06:37.550Z,14.42
2023-04-11T14:09:05.521Z,14.40
2023-04-11T14:11:32.166Z,14.42
2023-04-11T14:13:58.789Z,14.46
2023-04-11T14:16:25.392Z,14.50
2023-04-11T14:18:51.748Z,14.43
2023-04-11T14:21:18.243Z,14.42
2023-04-11T14:23:44.644Z,14.46
2023-04-11T14:26:11.096Z,14.50
2023-04-11T14:28:37.634Z,14.54
2023-04-11T14:31:04.268Z,14.54
2023-04-11T14:33:31.444Z,14.49
2023-04-11T14:35:57.838Z,14.49
2023-04-11T14:38:24.245Z,14.44
2023-04-11T14:40:50.702Z,14.42
2023-04-11T14:43:17.298Z,14.40
2023-04-11T14:45:43.795Z,14.42
2023-04-11T14:48:10.419Z,14.40
2023-04-11T14:50:36.888Z,14.41
2023-04-11T14:53:03.418Z,14.41
2023-04-11T14:55:29.837Z,14.43
2023-04-11T14:57:56.591Z,14.40
2023-04-11T15:00:24.702Z,14.34
2023-04-11T15:02:53.893Z,14.32
2023-04-11T15:05:22.399Z,14.30
2023-04-11T15:07:50.478Z,14.27
2023-04-11T15:10:22.285Z,14.19
2023-04-11T15:12:49.792Z,14.17
2023-04-11T15:15:16.385Z,14.24
2023-04-11T15:17:48.155Z,14.22
2023-04-11T15:20:15.958Z,14.17
2023-04-11T15:22:44.493Z,14.14
2023-04-11T15:25:13.083Z,14.16
2023-04-11T15:27:40.064Z,14.11
2023-04-11T15:30:07.416Z,14.05
2023-04-11T15:32:34.386Z,14.01
2023-04-11T15:35:00.970Z,13.98
2023-04-11T15:37:27.638Z,14.01
2023-04-11T15:39:54.283Z,14.03
2023-04-11T15:42:20.904Z,14.03
2023-04-11T15:44:47.341Z,13.99
2023-04-11T15:47:13.872Z,13.94
2023-04-11T15:49:40.969Z,13.88
2023-04-11T15:52:07.401Z,13.83
2023-04-11T15:54:33.908Z,13.85
2023-04-11T15:57:01.753Z,13.87
2023-04-11T15:59:28.197Z,13.88
2023-04-11T16:01:54.753Z,13.91
2023-04-11T16:04:21.315Z,13.92
2023-04-11T16:06:47.868Z,13.80
2023-04-11T16:09:14.357Z,13.73
2023-04-11T16:11:41.136Z,13.70
2023-04-11T16:14:07.515Z,13.70
2023-04-11T16:16:34.054Z,13.66
2023-04-11T16:19:00.563Z,13.66
2023-04-11T16:21:27.183Z,13.60
2023-04-11T16:23:54.818Z,13.50
2023-04-11T16:26:21.445Z,13.45
2023-04-11T16:28:48.795Z,13.43
2023-04-11T16:31:21.516Z,13.38
2023-04-11T16:33:47.994Z,13.40
2023-04-11T16:36:14.401Z,13.40
2023-04-11T16:38:40.961Z,13.37
2023-04-11T16:41:07.421Z,13.34
2023-04-11T16:43:33.862Z,13.26
2023-04-11T16:46:00.554Z,13.18
2023-04-11T16:48:27.093Z,13.11
2023-04-11T16:50:53.606Z,13.05
2023-04-11T16:53:20.042Z,12.96
2023-04-11T16:55:46.417Z,12.92
2023-04-11T16:58:12.874Z,12.85
2023-04-11T17:00:39.270Z,12.84
2023-04-11T17:03:05.858Z,12.81
2023-04-11T17:05:34.170Z,12.80
2023-04-11T17:08:00.818Z,12.76
2023-04-11T17:10:27.230Z,12.71
2023-04-11T17:12:54.558Z,12.66
2023-04-11T17:15:21.017Z,12.61
2023-04-11T17:17:47.539Z,12.54
2023-04-11T17:20:14.911Z,12.49
2023-04-11T17:22:43.160Z,12.42
2023-04-11T17:25:10.270Z,12.38
2023-04-11T17:27:36.656Z,12.32
2023-04-11T17:30:04.040Z,12.25
2023-04-11T17:32:30.568Z,12.23
2023-04-11T17:34:56.936Z,12.21
2023-04-11T17:37:23.453Z,12.17
2023-04-11T17:39:49.854Z,12.13
2023-04-11T17:42:16.238Z,12.09
2023-04-11T17:44:42.680Z,12.04
2023-04-11T17:47:09.058Z,12.01
2023-04-11T17:49:48.705Z,11.96
2023-04-11T17:52:15.083Z,11.93
2023-04-11T17:54:45.448Z,11.86
2023-04-11T17:57:13.031Z,11.78
2023-04-11T17:59:40.808Z,11.74
2023-04-11T18:02:09.545Z,11.68
2023-04-11T18:04:36.226Z,11.65
2023-04-11T18:07:03.765Z,11.59
2023-04-11T18:09:31.845Z,11.54
2023-04-11T18:12:05.545Z,11.49
2023-04-11T18:14:33.916Z,11.43
2023-04-11T18:17:04.491Z,11.38
2023-04-11T18:19:34.096Z,11.32
2023-04-11T18:22:00.594Z,11.28
2023-04-11T18:24:31.690Z,11.21
2023-04-11T18:27:01.270Z,11.16
2023-04-11T18:29:27.680Z,11.12
2023-04-11T18:32:21.201Z,11.07
2023-04-11T18:34:44.186Z,11.05
2023-04-11T18:37:11.056Z,11.04
2023-04-11T18:39:38.263Z,11.07
2023-04-11T18:42:05.240Z,11.07
2023-04-11T18:44:32.443Z,11.06
2023-04-11T18:47:02.046Z,11.06
2023-04-11T18:49:31.774Z,11.04
2023-04-11T18:51:58.630Z,11.03
2023-04-11T18:54:25.466Z,11.00
2023-04-11T18:56:53.871Z,11.01
2023-04-11T18:59:28.808Z,11.00
2023-04-11T19:01:59.312Z,11.02
2023-04-11T19:04:26.539Z,11.02
2023-04-11T19:06:53.515Z,11.04
2023-04-11T19:09:21.518Z,11.01
2023-04-11T19:11:49.137Z,11.02
2023-04-11T19:14:18.985Z,11.00
2023-04-11T19:16:46.833Z,11.01
2023-04-11T19:19:13.813Z,11.04
2023-04-11T19:21:42.081Z,11.03
2023-04-11T19:24:09.786Z,11.02
2023-04-11T19:26:52.914Z,11.02
2023-04-11T19:29:19.401Z,11.02
2023-04-11T19:31:45.966Z,11.01
2023-04-11T19:34:12.798Z,11.01
2023-04-11T19:36:39.548Z,11.02
2023-04-11T19:39:06.424Z,11.04
2023-04-11T19:41:32.815Z,11.03
2023-04-11T19:43:59.548Z,11.03
2023-04-11T19:46:25.996Z,11.03
2023-04-11T19:48:52.525Z,11.02
2023-04-11T19:51:18.950Z,11.00
2023-04-11T19:53:45.957Z,10.98
2023-04-11T19:56:12.454Z,10.95
2023-04-11T19:58:40.048Z,10.95
2023-04-11T20:01:07.335Z,10.91
2023-04-11T20:03:34.539Z,10.90
2023-04-11T20:06:02.909Z,10.88
2023-04-11T20:08:33.303Z,10.89
2023-04-11T20:10:59.860Z,10.87
2023-04-11T20:13:26.323Z,10.88
2023-04-11T20:15:52.754Z,10.89
2023-04-11T20:18:19.189Z,10.92
2023-04-11T20:20:45.633Z,10.94
2023-04-11T20:23:15.888Z,10.95
2023-04-11T20:25:42.759Z,10.98
2023-04-11T20:28:09.687Z,10.96
2023-04-11T20:30:38.567Z,10.97
2023-04-11T20:33:05.152Z,10.97
2023-04-11T20:35:31.638Z,10.95
2023-04-11T20:37:58.260Z,10.96
2023-04-11T20:40:24.701Z,10.96
2023-04-11T20:42:51.272Z,10.96
2023-04-11T20:45:21.664Z,10.95
2023-04-11T20:47:50.142Z,10.93
2023-04-11T20:50:17.574Z,10.91
2023-04-11T20:52:46.533Z,10.90
2023-04-11T20:55:16.423Z,10.88
2023-04-11T20:57:42.942Z,10.87
2023-04-11T21:00:16.955Z,10.87
2023-04-11T21:02:45.717Z,10.87
2023-04-11T21:05:13.543Z,10.86
2023-04-11T21:07:42.016Z,10.87
2023-04-11T21:10:09.492Z,10.85
2023-04-11T21:12:36.210Z,10.86
2023-04-11T21:15:03.675Z,10.86
2023-04-11T21:17:34.297Z,10.85
2023-04-11T21:20:01.741Z,10.86
2023-04-11T21:22:28.123Z,10.83
2023-04-11T21:24:54.535Z,10.85
2023-04-11T21:27:21.094Z,10.84
2023-04-11T21:29:47.531Z,10.85
2023-04-11T21:32:13.910Z,10.84
2023-04-11T21:34:40.424Z,10.81
2023-04-11T21:37:06.803Z,10.78
2023-04-11T21:39:33.200Z,10.76
2023-04-11T21:42:00.229Z,10.74
2023-04-11T21:44:26.718Z,10.74
2023-04-11T21:46:53.241Z,10.73
2023-04-11T21:49:19.724Z,10.73
2023-04-11T21:51:46.107Z,10.75
2023-04-11T21:54:12.482Z,10.75
2023-04-11T21:56:38.898Z,10.74
2023-04-11T21:59:05.496Z,10.74
2023-04-11T22:01:31.916Z,10.71
2023-04-11T22:03:59.145Z,10.70
2023-04-11T22:06:26.613Z,10.69
2023-04-11T22:08:53.039Z,10.69
2023-04-11T22:11:20.347Z,10.70
2023-04-11T22:13:46.956Z,10.67
2023-04-11T22:16:14.174Z,10.62
2023-04-11T22:18:49.826Z,10.62
2023-04-11T22:21:19.689Z,10.61
2023-04-11T22:23:54.703Z,10.61
2023-04-11T22:26:35.032Z,10.55
2023-04-11T22:29:05.478Z,10.54
2023-04-11T22:31:38.328Z,10.51
2023-04-11T22:34:05.371Z,10.48
2023-04-11T22:36:35.783Z,10.44
2023-04-11T22:39:05.907Z,10.40
2023-04-11T22:41:33.210Z,10.39
2023-04-11T22:44:00.849Z,10.37
2023-04-11T22:46:30.938Z,10.30
2023-04-11T22:49:00.220Z,10.31
2023-04-11T22:51:30.034Z,10.26
2023-04-11T22:53:57.123Z,10.22
2023-04-11T22:56:23.753Z,10.19
2023-04-11T22:58:50.195Z,10.14
2023-04-11T23:01:17.576Z,10.11
2023-04-11T23:03:44.021Z,10.09
2023-04-11T23:06:10.942Z,10.03
2023-04-11T23:08:37.448Z,10.02
2023-04-11T23:11:04.169Z,9.99
2023-04-11T23:13:30.587Z,9.96
2023-04-11T23:15:57.005Z,9.96
2023-04-11T23:18:23.365Z,9.95
2023-04-11T23:20:50.734Z,9.96
2023-04-11T23:23:18.339Z,9.94
2023-04-11T23:25:45.425Z,9.86
2023-04-11T23:28:12.270Z,9.87
2023-04-11T23:30:39.164Z,9.84
2023-04-11T23:33:08.942Z,9.82
2023-04-11T23:35:35.886Z,9.83
2023-04-11T23:38:03.186Z,9.85
2023-04-11T23:40:30.500Z,9.82
2023-04-11T23:42:59.878Z,9.79
2023-04-11T23:45:26.429Z,9.75
2023-04-11T23:47:53.070Z,9.71
2023-04-11T23:50:19.539Z,9.69
2023-04-11T23:52:46.857Z,9.64
2023-04-11T23:55:13.614Z,9.58
2023-04-11T23:57:39.991Z,9.51
